Time;durP1;ratioP1;P1;durP2;ratioP2;P2;SDS_P1;SDS_P2;PMS_P1;PMS_P2;Temp;Humidity;BMP_temperature;BMP_pressure;BME280_temperature;BME280_humidity;BME280_pressure;Samples;Min_cycle;Max_cycle;Signal;HPM_P1;HPM_P2
2023/05/10 00:00:17;;;;;;;3.65;2.60;;;;;;;10.10;100.00;93280.22;5068533;28;20067;-72
2023/05/10 00:02:44;;;;;;;3.90;2.83;;;;;;;10.14;100.00;93275.50;5068905;28;20103;-73
2023/05/10 00:05:10;;;;;;;4.85;2.63;;;;;;;10.14;100.00;93278.06;5062565;28;20493;-73
2023/05/10 00:07:37;;;;;;;3.00;2.10;;;;;;;10.00;100.00;93278.09;5061191;28;20045;-73
2023/05/10 00:10:06;;;;;;;3.55;2.38;;;;;;;9.97;100.00;93277.72;5068078;28;20052;-73
2023/05/10 00:12:33;;;;;;;4.53;2.00;;;;;;;9.99;100.00;93276.53;5068140;28;20055;-73
2023/05/10 00:15:00;;;;;;;2.40;1.83;;;;;;;9.94;100.00;93270.44;5068056;28;20459;-73
2023/05/10 00:17:28;;;;;;;2.40;1.90;;;;;;;9.94;100.00;93268.66;5067928;28;20413;-72
2023/05/10 00:19:55;;;;;;;3.42;1.80;;;;;;;9.76;100.00;93266.75;5067655;28;20048;-72
2023/05/10 00:22:22;;;;;;;1.92;1.08;;;;;;;9.68;100.00;93262.63;5067804;28;20037;-73
2023/05/10 00:24:48;;;;;;;4.13;2.33;;;;;;;9.53;100.00;93256.97;5067692;28;20547;-73
2023/05/10 00:27:15;;;;;;;4.30;2.70;;;;;;;9.59;100.00;93251.03;5067327;28;20496;-73
2023/05/10 00:29:42;;;;;;;3.10;2.00;;;;;;;9.41;100.00;93257.59;5067951;28;20045;-74
2023/05/10 00:32:09;;;;;;;3.40;2.00;;;;;;;9.42;100.00;93256.59;5067339;28;20063;-73
2023/05/10 00:34:37;;;;;;;3.05;2.10;;;;;;;9.35;100.00;93243.00;5067174;28;20489;-73
2023/05/10 00:37:03;;;;;;;3.70;2.35;;;;;;;9.34;100.00;93254.25;5067527;28;20455;-73
2023/05/10 00:39:30;;;;;;;3.25;2.25;;;;;;;9.28;100.00;93247.34;5067407;28;20546;-73
2023/05/10 00:41:57;;;;;;;2.25;1.48;;;;;;;9.29;100.00;93249.72;5067549;28;20409;-73
2023/05/10 00:44:24;;;;;;;3.63;1.63;;;;;;;9.17;100.00;93239.28;5067477;28;20045;-73
2023/05/10 00:46:51;;;;;;;2.58;1.88;;;;;;;9.29;100.00;93248.91;5067187;28;20088;-73
2023/05/10 00:49:18;;;;;;;3.15;1.83;;;;;;;9.35;100.00;93245.56;5067003;28;20045;-73
2023/05/10 00:51:46;;;;;;;3.13;1.70;;;;;;;9.40;100.00;93247.53;5067504;28;20105;-74
2023/05/10 00:54:15;;;;;;;2.30;1.75;;;;;;;9.38;100.00;93242.59;5055298;28;20045;-73
2023/05/10 00:56:43;;;;;;;3.28;1.70;;;;;;;9.43;100.00;93244.56;5067125;28;20122;-73
2023/05/10 00:59:10;;;;;;;3.58;2.40;;;;;;;9.15;100.00;93231.03;5067826;28;20098;-73
2023/05/10 01:01:38;;;;;;;2.90;2.17;;;;;;;9.21;100.00;93237.91;5050306;28;20048;-73
2023/05/10 01:04:05;;;;;;;2.70;2.08;;;;;;;9.18;100.00;93237.53;5066493;28;20045;-73
2023/05/10 01:06:32;;;;;;;3.10;2.25;;;;;;;9.17;100.00;93231.59;5067288;28;20053;-73
2023/05/10 01:09:00;;;;;;;2.95;2.20;;;;;;;9.00;100.00;93231.25;5066414;28;20485;-74
2023/05/10 01:11:27;;;;;;;2.63;2.00;;;;;;;8.94;100.00;93234.59;5059230;28;20048;-73
2023/05/10 01:13:58;;;;;;;3.10;2.30;;;;;;;8.91;100.00;93232.41;5067209;28;20052;-73
2023/05/10 01:16:25;;;;;;;3.80;2.67;;;;;;;8.95;100.00;93218.25;5066893;28;20048;-73
2023/05/10 01:18:53;;;;;;;3.85;2.83;;;;;;;8.90;100.00;93225.72;5066477;28;20139;-73
2023/05/10 01:21:39;;;;;;;4.38;3.33;;;;;;;8.92;100.00;93226.31;5067144;28;20044;-73
2023/05/10 01:24:50;;;;;;;5.03;3.90;;;;;;;8.88;100.00;93220.03;5066726;28;20044;-73
2023/05/10 01:27:44;;;;;;;4.80;3.45;;;;;;;8.95;100.00;93228.47;5004030;28;20514;-73
2023/05/10 01:30:44;;;;;;;4.18;3.03;;;;;;;8.86;100.00;93222.78;5004949;28;20049;-73
2023/05/10 01:33:20;;;;;;;4.40;3.30;;;;;;;8.95;100.00;93221.56;5061509;28;20052;-74
2023/05/10 01:38:46;;;;;;;4.13;3.22;;;;;;;9.11;100.00;93218.81;5066897;28;20060;-74
2023/05/10 01:41:19;;;;;;;4.75;3.47;;;;;;;9.16;100.00;93213.88;5066772;28;20049;-73
2023/05/10 01:43:53;;;;;;;4.25;3.28;;;;;;;9.27;100.00;93218.38;5052068;28;20106;-74
2023/05/10 01:46:28;;;;;;;4.60;3.65;;;;;;;9.30;100.00;93214.63;5046648;28;20049;-73
2023/05/10 01:48:59;;;;;;;4.68;3.15;;;;;;;9.40;100.00;93211.63;5046657;28;20049;-74
2023/05/10 01:51:32;;;;;;;4.60;3.40;;;;;;;9.21;100.00;93185.84;5062357;28;20048;-74
2023/05/10 01:54:02;;;;;;;4.45;3.75;;;;;;;9.23;100.00;93182.09;5066727;28;20406;-74
2023/05/10 01:56:31;;;;;;;3.53;3.08;;;;;;;9.40;100.00;93214.97;5066394;28;20048;-74
2023/05/10 01:59:01;;;;;;;4.28;3.38;;;;;;;9.39;100.00;93223.66;5066612;28;20548;-73
2023/05/10 02:01:28;;;;;;;4.35;3.50;;;;;;;9.26;100.00;93206.53;5066209;28;20052;-74
2023/05/10 02:03:59;;;;;;;4.78;3.35;;;;;;;9.24;100.00;93213.66;5066946;28;20045;-73
2023/05/10 02:06:28;;;;;;;4.85;3.78;;;;;;;9.25;100.00;93212.66;5066500;28;20057;-73
2023/05/10 02:08:55;;;;;;;5.00;3.90;;;;;;;8.90;100.00;93187.31;5066782;28;20076;-73
2023/05/10 02:11:24;;;;;;;5.10;4.05;;;;;;;8.95;100.00;93215.69;5066482;28;20090;-73
2023/05/10 02:13:52;;;;;;;5.95;4.10;;;;;;;8.92;100.00;93209.16;5049441;28;20049;-73
2023/05/10 02:16:24;;;;;;;6.05;4.22;;;;;;;8.98;100.00;93205.00;5049347;28;20539;-74
2023/05/10 02:18:52;;;;;;;5.40;4.75;;;;;;;8.97;100.00;93203.44;5050562;28;20076;-74
2023/05/10 02:21:22;;;;;;;7.03;5.03;;;;;;;8.98;100.00;93199.88;5051088;28;20045;-73
2023/05/10 02:23:51;;;;;;;5.30;4.80;;;;;;;8.75;100.00;93201.09;5050428;28;20394;-74
2023/05/10 02:26:22;;;;;;;5.30;4.32;;;;;;;8.74;100.00;93196.97;5064753;28;20090;-73
2023/05/10 02:28:50;;;;;;;6.40;4.70;;;;;;;8.65;100.00;93190.47;5070555;28;20040;-73
2023/05/10 02:31:18;;;;;;;5.60;5.00;;;;;;;8.68;100.00;93190.09;5070220;28;20059;-73
2023/05/10 02:33:46;;;;;;;6.13;5.22;;;;;;;8.75;100.00;93192.66;5070453;28;20734;-72
2023/05/10 02:36:14;;;;;;;5.90;4.85;;;;;;;8.72;100.00;93198.16;5070306;28;20047;-73
2023/05/10 02:38:44;;;;;;;6.13;5.07;;;;;;;8.78;100.00;93199.91;5070095;28;20044;-73
2023/05/10 02:41:12;;;;;;;7.00;5.55;;;;;;;8.66;100.00;93179.25;5070407;28;20094;-73
2023/05/10 02:43:42;;;;;;;6.45;5.32;;;;;;;8.74;100.00;93198.75;5069566;28;20512;-73
2023/05/10 02:46:08;;;;;;;6.75;5.60;;;;;;;8.74;100.00;93198.75;5069908;28;20048;-73
2023/05/10 02:48:35;;;;;;;7.60;5.75;;;;;;;8.86;100.00;93199.72;5069898;28;20501;-73
2023/05/10 02:51:07;;;;;;;8.27;6.13;;;;;;;8.89;100.00;93199.31;5070328;28;20048;-73
2023/05/10 02:53:37;;;;;;;7.20;5.53;;;;;;;8.85;100.00;93187.91;5069938;28;20040;-73
2023/05/10 02:56:14;;;;;;;15.32;13.95;;;;;;;8.98;100.00;93199.88;5070148;28;20136;-73
2023/05/10 02:58:41;;;;;;;9.30;8.40;;;;;;;9.03;100.00;93197.53;5069859;28;20128;-73
2023/05/10 03:01:08;;;;;;;15.43;13.95;;;;;;;9.04;100.00;93191.44;5069453;28;20512;-73
2023/05/10 03:03:35;;;;;;;12.38;11.18;;;;;;;9.07;100.00;93196.13;5069839;28;20049;-73
2023/05/10 03:06:02;;;;;;;7.82;6.70;;;;;;;9.09;100.00;93201.06;5069582;28;20056;-73
2023/05/10 03:08:30;;;;;;;9.57;8.57;;;;;;;9.00;100.00;93197.94;5069671;28;20041;-73
2023/05/10 03:11:13;;;;;;;5.97;4.82;;;;;;;9.07;100.00;93197.91;5070112;28;20059;-73
2023/05/10 03:13:50;;;;;;;7.30;5.88;;;;;;;8.78;100.00;93195.59;5069439;28;20040;-73
2023/05/10 03:16:20;;;;;;;6.72;6.03;;;;;;;8.80;100.00;93198.72;5069784;28;20048;-73
2023/05/10 03:18:55;;;;;;;5.72;4.28;;;;;;;8.68;100.00;93198.56;5037001;28;20512;-73
2023/05/10 03:21:25;;;;;;;5.35;4.47;;;;;;;8.45;100.00;93188.69;5049308;28;20045;-73
2023/05/10 03:23:59;;;;;;;5.57;4.97;;;;;;;8.60;100.00;93190.28;5049863;28;20045;-73
2023/05/10 03:26:29;;;;;;;6.30;4.50;;;;;;;8.54;100.00;93192.66;5048653;28;20052;-73
2023/05/10 03:28:56;;;;;;;5.60;4.72;;;;;;;8.49;100.00;93184.75;5057924;28;20143;-73
2023/05/10 03:31:23;;;;;;;6.68;5.05;;;;;;;8.66;100.00;93197.94;5069442;28;20519;-73
2023/05/10 03:33:51;;;;;;;5.85;4.63;;;;;;;8.51;100.00;93192.22;5068970;28;20053;-73
2023/05/10 03:36:18;;;;;;;8.15;5.72;;;;;;;8.40;100.00;93202.06;5069366;28;20040;-73
2023/05/10 03:38:45;;;;;;;8.02;6.93;;;;;;;8.43;100.00;93200.91;5069298;28;20051;-73
2023/05/10 03:41:12;;;;;;;8.98;7.10;;;;;;;8.43;100.00;93198.34;5069173;28;20107;-73
2023/05/10 03:43:41;;;;;;;7.88;5.88;;;;;;;8.45;100.00;93193.00;5057313;28;20158;-73
2023/05/10 03:46:07;;;;;;;7.32;6.00;;;;;;;8.48;100.00;93206.19;5049161;28;20059;-73
2023/05/10 03:48:34;;;;;;;6.47;5.43;;;;;;;8.57;100.00;93204.28;5049171;28;20424;-73
2023/05/10 03:51:01;;;;;;;7.00;5.65;;;;;;;8.55;100.00;93207.03;5049527;28;20059;-73
2023/05/10 03:53:28;;;;;;;7.15;5.63;;;;;;;8.32;100.00;93179.22;5048700;28;20045;-73
2023/05/10 03:55:54;;;;;;;8.82;6.68;;;;;;;8.54;100.00;93209.78;5069570;28;20429;-73
2023/05/10 03:58:21;;;;;;;9.25;7.20;;;;;;;8.38;100.00;93208.38;5068802;28;20056;-73
2023/05/10 04:00:49;;;;;;;7.18;6.05;;;;;;;8.49;100.00;93215.47;5068908;28;20110;-73
2023/05/10 04:03:16;;;;;;;8.60;6.55;;;;;;;8.65;100.00;93210.94;5069164;28;20114;-73
2023/05/10 04:05:43;;;;;;;10.00;7.18;;;;;;;8.79;100.00;93209.97;5068672;28;20098;-73
2023/05/10 04:08:10;;;;;;;9.55;6.70;;;;;;;8.92;100.00;93221.19;5069038;28;20049;-73
2023/05/10 04:10:37;;;;;;;10.20;6.85;;;;;;;9.03;100.00;93215.44;5048861;28;20048;-73
2023/05/10 04:13:04;;;;;;;8.23;5.55;;;;;;;9.14;100.00;93220.97;5049251;28;20045;-73
2023/05/10 04:15:30;;;;;;;5.07;3.97;;;;;;;9.22;100.00;93220.75;5048523;28;20045;-73
2023/05/10 04:17:59;;;;;;;6.00;3.55;;;;;;;9.28;100.00;93227.66;5048783;28;20048;-72
2023/05/10 04:20:25;;;;;;;10.35;4.20;;;;;;;9.32;100.00;93233.16;5048530;28;20045;-73
2023/05/10 04:22:52;;;;;;;9.63;5.00;;;;;;;9.32;100.00;93231.38;5050005;28;20417;-73
2023/05/10 04:25:19;;;;;;;7.07;5.00;;;;;;;8.80;100.00;93239.72;5068371;28;20048;-73
2023/05/10 04:27:46;;;;;;;6.45;5.38;;;;;;;8.66;100.00;93235.59;5068328;28;20542;-73
2023/05/10 04:30:13;;;;;;;7.88;6.30;;;;;;;8.49;100.00;93237.72;5068329;28;20820;-73
2023/05/10 04:32:40;;;;;;;8.88;7.20;;;;;;;8.65;100.00;93236.56;5065499;28;20048;-73
2023/05/10 04:35:09;;;;;;;8.05;7.22;;;;;;;8.67;100.00;93244.84;5048627;28;20110;-73
2023/05/10 04:37:36;;;;;;;11.20;9.75;;;;;;;8.51;100.00;93241.66;5047427;28;20052;-73
2023/05/10 04:40:04;;;;;;;8.70;6.53;;;;;;;8.12;100.00;93250.84;5048000;28;20484;-73
2023/05/10 04:42:30;;;;;;;9.52;6.35;;;;;;;7.98;100.00;93248.25;5048191;28;20040;-73
2023/05/10 04:44:57;;;;;;;8.20;6.60;;;;;;;8.09;100.00;93240.97;5048131;28;20045;-73
2023/05/10 04:47:24;;;;;;;7.72;6.65;;;;;;;8.11;100.00;93244.16;5063797;28;20068;-73
2023/05/10 04:49:50;;;;;;;7.43;6.28;;;;;;;7.72;100.00;93244.63;5067961;28;20099;-73
2023/05/10 04:52:18;;;;;;;8.55;6.72;;;;;;;7.79;100.00;93246.41;5068182;28;20055;-73
2023/05/10 04:54:45;;;;;;;9.35;6.43;;;;;;;7.84;100.00;93237.19;5063376;28;20084;-73
2023/05/10 04:57:12;;;;;;;8.45;6.38;;;;;;;7.64;100.00;93249.09;5067859;28;20458;-73
2023/05/10 04:59:39;;;;;;;10.60;7.15;;;;;;;7.50;100.00;93246.47;5067485;28;20579;-73
2023/05/10 05:02:06;;;;;;;13.45;12.05;;;;;;;7.55;100.00;93248.47;5067800;28;20417;-73
2023/05/10 05:04:33;;;;;;;11.38;9.45;;;;;;;7.64;100.00;93249.09;5067454;28;20135;-73
2023/05/10 05:06:59;;;;;;;9.00;6.97;;;;;;;7.43;100.00;93249.00;5067548;28;20049;-73
2023/05/10 05:09:28;;;;;;;9.13;7.55;;;;;;;7.49;100.00;93244.91;5067152;28;20041;-73
2023/05/10 05:11:55;;;;;;;9.18;7.30;;;;;;;7.32;100.00;93249.53;5067456;28;20053;-73
2023/05/10 05:14:22;;;;;;;8.70;7.05;;;;;;;7.35;100.00;93252.50;5067453;28;20101;-73
2023/05/10 05:16:49;;;;;;;10.68;8.25;;;;;;;7.11;100.00;93246.06;5058611;28;20493;-73
2023/05/10 05:19:15;;;;;;;10.60;8.00;;;;;;;7.08;100.00;93252.34;5047250;28;20071;-73
2023/05/10 05:21:43;;;;;;;10.98;7.78;;;;;;;6.92;100.00;93221.97;5047281;28;20045;-73
2023/05/10 05:24:11;;;;;;;13.45;9.95;;;;;;;7.05;100.00;93246.81;5047310;28;20055;-73
2023/05/10 05:26:39;;;;;;;13.57;10.23;;;;;;;7.01;100.00;93250.72;5047288;28;20559;-73
2023/05/10 05:29:06;;;;;;;14.43;12.93;;;;;;;6.94;100.00;93256.56;5051502;28;20098;-73
2023/05/10 05:31:32;;;;;;;14.82;10.88;;;;;;;7.11;100.00;93253.75;5067280;28;20060;-73
2023/05/10 05:33:59;;;;;;;11.13;9.48;;;;;;;7.20;100.00;93257.72;5067028;28;20040;-73
2023/05/10 05:36:26;;;;;;;11.30;8.90;;;;;;;7.03;100.00;93267.44;5067243;28;20041;-73
2023/05/10 05:38:53;;;;;;;11.27;8.20;;;;;;;6.89;100.00;93263.22;5066844;28;20049;-73
2023/05/10 05:41:19;;;;;;;13.27;8.95;;;;;;;6.77;100.00;93256.03;5067421;28;20194;-73
2023/05/10 05:43:48;;;;;;;10.48;8.38;;;;;;;6.76;100.00;93258.81;5066950;28;20045;-73
2023/05/10 05:46:14;;;;;;;11.38;9.23;;;;;;;6.93;100.00;93261.84;5066882;28;20046;-73
2023/05/10 05:48:41;;;;;;;11.95;9.73;;;;;;;6.99;100.00;93268.00;5065123;28;20048;-72
2023/05/10 05:51:08;;;;;;;13.02;10.32;;;;;;;7.05;100.00;93272.38;5043620;28;20421;-72
2023/05/10 05:53:35;;;;;;;12.95;10.82;;;;;;;7.18;100.00;93267.34;5070438;28;20559;-73
2023/05/10 05:56:01;;;;;;;15.85;13.68;;;;;;;7.28;100.00;93273.88;5044301;28;20075;-73
2023/05/10 05:58:28;;;;;;;14.23;10.43;;;;;;;7.34;100.00;93276.50;5070954;28;20056;-72
2023/05/10 06:00:57;;;;;;;10.07;8.80;;;;;;;7.20;100.00;93280.72;5044640;28;20048;-73
2023/05/10 06:03:23;;;;;;;12.05;8.65;;;;;;;7.34;100.00;93275.69;5071041;28;20040;-72
2023/05/10 06:05:50;;;;;;;9.35;7.95;;;;;;;7.11;100.00;93286.16;5070451;28;20105;-73
2023/05/10 06:08:17;;;;;;;8.85;7.55;;;;;;;7.02;100.00;93283.75;5070341;28;20067;-73
2023/05/10 06:10:45;;;;;;;14.85;10.68;;;;;;;7.08;100.00;93285.56;5070957;28;20447;-73
2023/05/10 06:13:12;;;;;;;18.48;12.35;;;;;;;7.10;100.00;93277.72;5070759;28;20048;-73
2023/05/10 06:15:38;;;;;;;11.70;8.73;;;;;;;7.01;100.00;93287.28;5070593;28;20124;-72
2023/05/10 06:18:07;;;;;;;10.32;8.48;;;;;;;6.93;100.00;93285.66;5070160;28;20090;-73
2023/05/10 06:20:33;;;;;;;13.95;11.55;;;;;;;7.05;100.00;93288.47;5044176;28;20090;-72
2023/05/10 06:23:00;;;;;;;11.48;8.70;;;;;;;6.95;100.00;93273.47;5070007;28;20055;-73
2023/05/10 06:25:27;;;;;;;11.50;8.93;;;;;;;6.97;100.00;93282.69;5070346;28;20053;-73
2023/05/10 06:27:57;;;;;;;10.40;8.80;;;;;;;6.88;100.00;93290.50;5070448;28;20045;-73
2023/05/10 06:30:27;;;;;;;11.23;8.80;;;;;;;6.91;100.00;93284.25;5070588;28;20066;-73
2023/05/10 06:32:55;;;;;;;10.52;8.68;;;;;;;6.93;100.00;93285.66;5068651;28;20148;-73
2023/05/10 06:35:23;;;;;;;13.32;9.65;;;;;;;6.85;100.00;93285.75;5059114;28;20052;-73
2023/05/10 06:37:50;;;;;;;11.02;9.10;;;;;;;6.89;100.00;93291.31;5069576;28;20492;-72
2023/05/10 06:40:17;;;;;;;12.18;10.48;;;;;;;7.03;100.00;93284.53;5070057;28;20052;-72
2023/05/10 06:42:46;;;;;;;12.68;10.23;;;;;;;7.27;100.00;93295.31;5069608;28;20106;-73
2023/05/10 06:45:13;;;;;;;12.93;9.38;;;;;;;7.18;100.00;93277.56;5070107;28;20080;-73
2023/05/10 06:47:40;;;;;;;13.35;9.60;;;;;;;7.03;100.00;93302.41;5069987;28;20040;-73
2023/05/10 06:50:08;;;;;;;18.88;11.52;;;;;;;7.04;100.00;93306.56;5069126;28;20047;-72
2023/05/10 06:52:36;;;;;;;12.45;9.98;;;;;;;7.19;100.00;93297.00;5069720;28;20040;-73
2023/05/10 06:55:04;;;;;;;16.70;10.80;;;;;;;7.29;100.00;93298.47;5069864;28;20040;-73
2023/05/10 06:57:31;;;;;;;12.63;9.85;;;;;;;7.32;100.00;93300.66;5069879;28;20079;-73
2023/05/10 06:59:58;;;;;;;11.73;9.85;;;;;;;7.37;100.00;93294.97;5069951;28;20049;-72
2023/05/10 07:02:25;;;;;;;13.48;10.07;;;;;;;7.48;100.00;93297.00;5068819;28;20055;-73
2023/05/10 07:04:52;;;;;;;12.60;9.80;;;;;;;7.57;100.00;93297.63;5069579;28;20561;-72
2023/05/10 07:07:19;;;;;;;13.93;10.65;;;;;;;7.66;100.00;93311.06;5056099;28;20064;-72
2023/05/10 07:09:47;;;;;;;15.52;11.13;;;;;;;7.65;100.00;93312.03;5069675;28;20101;-72
2023/05/10 07:12:14;;;;;;;13.57;10.23;;;;;;;7.72;100.00;93307.75;5069601;28;20044;-72
2023/05/10 07:14:41;;;;;;;13.50;11.13;;;;;;;7.92;100.00;93305.25;5070089;28;20048;-72
2023/05/10 07:17:08;;;;;;;13.65;10.75;;;;;;;8.07;100.00;93315.38;5068794;28;20045;-72
2023/05/10 07:19:35;;;;;;;14.55;11.18;;;;;;;8.19;100.00;93314.84;5069265;28;20060;-72
2023/05/10 07:22:01;;;;;;;13.50;10.40;;;;;;;8.32;100.00;93314.88;5069318;28;20041;-72
2023/05/10 07:24:28;;;;;;;16.98;12.63;;;;;;;8.37;100.00;93314.28;5068904;28;20053;-72
2023/05/10 07:26:56;;;;;;;16.80;11.52;;;;;;;8.59;100.00;93314.97;5069149;28;20504;-72
2023/05/10 07:29:23;;;;;;;17.17;11.93;;;;;;;8.76;100.00;93319.72;5068891;28;20045;-72
2023/05/10 07:31:50;;;;;;;21.45;11.57;;;;;;;8.63;100.00;93328.16;5069090;28;20056;-72
2023/05/10 07:34:17;;;;;;;14.48;10.80;;;;;;;8.83;100.00;93330.75;5068604;28;20041;-73
2023/05/10 07:36:43;;;;;;;14.10;10.27;;;;;;;8.45;100.00;93332.03;5068993;28;20033;-73
2023/05/10 07:39:10;;;;;;;13.00;10.27;;;;;;;8.24;100.00;93320.94;5068660;28;20550;-73
2023/05/10 07:41:38;;;;;;;15.25;10.57;;;;;;;8.38;100.00;93331.22;5069277;28;20051;-72
2023/05/10 07:44:07;;;;;;;15.75;11.45;;;;;;;8.54;100.00;93332.66;5069136;28;20052;-72
2023/05/10 07:46:33;;;;;;;14.40;10.88;;;;;;;8.75;100.00;93334.28;5068859;28;20511;-73
2023/05/10 07:49:00;;;;;;;14.23;11.27;;;;;;;8.88;100.00;93340.41;5068982;28;20071;-72
2023/05/10 07:51:27;;;;;;;14.85;11.80;;;;;;;8.80;100.00;93329.34;5068814;28;20047;-73
2023/05/10 07:53:54;;;;;;;15.10;11.95;;;;;;;8.91;100.00;93343.38;5069034;28;20052;-72
2023/05/10 07:56:24;;;;;;;12.70;9.85;;;;;;;8.76;100.00;93348.69;5068594;28;20102;-73
2023/05/10 07:58:51;;;;;;;13.43;9.60;;;;;;;8.53;100.00;93320.84;5068600;28;20048;-72
2023/05/10 08:01:19;;;;;;;12.23;9.75;;;;;;;8.73;100.00;93336.25;5068220;28;20044;-73
2023/05/10 08:03:46;;;;;;;14.45;10.13;;;;;;;8.72;100.00;93329.56;5067957;28;20044;-72
2023/05/10 08:06:13;;;;;;;14.18;11.60;;;;;;;8.57;100.00;93331.50;5068383;28;20090;-72
2023/05/10 08:08:40;;;;;;;16.95;10.95;;;;;;;8.72;100.00;93337.25;5068298;28;20103;-72
2023/05/10 08:11:06;;;;;;;14.20;10.77;;;;;;;8.76;100.00;93333.31;5068335;28;20044;-72
2023/05/10 08:13:33;;;;;;;14.10;11.13;;;;;;;8.84;100.00;93341.78;5067241;28;20053;-72
2023/05/10 08:16:00;;;;;;;16.25;10.82;;;;;;;8.85;100.00;93340.78;5068529;28;20049;-72
2023/05/10 08:18:28;;;;;;;14.68;10.50;;;;;;;8.82;100.00;93345.34;5067978;28;20052;-72
2023/05/10 08:20:55;;;;;;;13.75;9.27;;;;;;;9.02;100.00;93339.44;5060952;28;20057;-72
2023/05/10 08:23:22;;;;;;;12.73;9.68;;;;;;;8.85;100.00;93353.59;5061582;28;20098;-72
2023/05/10 08:25:49;;;;;;;13.90;9.63;;;;;;;8.88;100.00;93354.00;5068065;28;20044;-72
2023/05/10 08:28:16;;;;;;;15.20;10.65;;;;;;;8.97;100.00;93361.50;5068036;28;20041;-72
2023/05/10 08:30:42;;;;;;;16.35;11.43;;;;;;;9.06;100.00;93353.44;5068218;28;20060;-72
2023/05/10 08:33:09;;;;;;;21.33;13.70;;;;;;;9.30;100.00;93348.69;5067441;28;20056;-72
2023/05/10 08:35:37;;;;;;;14.30;10.13;;;;;;;9.35;100.00;93338.63;5068011;28;20047;-72
2023/05/10 08:38:04;;;;;;;14.55;11.48;;;;;;;9.47;100.00;93348.28;5055715;28;20045;-72
2023/05/10 08:40:31;;;;;;;13.00;9.75;;;;;;;9.39;100.00;93356.97;5067904;28;20050;-73
2023/05/10 08:43:05;;;;;;;14.32;9.82;;;;;;;9.66;100.00;93351.03;5067715;28;20045;-72
2023/05/10 08:45:34;;;;;;;13.60;9.60;;;;;;;9.71;100.00;93356.34;5054985;28;20049;-72
2023/05/10 08:48:02;;;;;;;13.00;9.75;;;;;;;9.50;100.00;93350.47;5036654;28;20048;-72
2023/05/10 08:50:31;;;;;;;24.48;16.80;;;;;;;9.87;100.00;93344.88;5067446;28;20121;-72
2023/05/10 08:53:04;;;;;;;16.25;11.20;;;;;;;10.14;100.00;93353.28;5067423;28;20044;-72
2023/05/10 08:55:33;;;;;;;14.05;9.00;;;;;;;10.51;100.00;93362.25;5030486;28;20054;-72
2023/05/10 08:58:00;;;;;;;15.00;9.73;;;;;;;10.80;100.00;93360.13;5065266;28;20048;-72
2023/05/10 09:00:27;;;;;;;12.15;9.05;;;;;;;11.08;100.00;93366.66;5053214;28;20056;-72
2023/05/10 09:02:55;;;;;;;13.18;9.93;;;;;;;11.30;100.00;93364.50;5044697;28;20326;-72
2023/05/10 09:05:21;;;;;;;17.33;11.75;;;;;;;11.43;100.00;93378.28;5067391;28;20059;-72
2023/05/10 09:07:48;;;;;;;9.80;7.35;;;;;;;11.14;100.00;93376.09;5064239;28;20048;-72
2023/05/10 09:10:17;;;;;;;10.32;6.63;;;;;;;11.21;100.00;93370.94;5067017;28;20204;-72
2023/05/10 09:12:45;;;;;;;12.65;9.77;;;;;;;11.42;100.00;93346.63;5047346;28;20136;-72
2023/05/10 09:15:14;;;;;;;13.60;9.38;;;;;;;11.50;100.00;93343.75;5066739;28;20083;-72
2023/05/10 09:17:41;;;;;;;13.43;8.82;;;;;;;11.71;100.00;93356.47;5067447;28;20040;-72
2023/05/10 09:20:09;;;;;;;12.52;8.63;;;;;;;11.63;100.00;93345.44;5066766;28;20052;-72
2023/05/10 09:22:36;;;;;;;11.30;7.57;;;;;;;11.89;100.00;93356.47;5065841;28;20044;-72
2023/05/10 09:25:07;;;;;;;11.35;7.53;;;;;;;11.81;100.00;93343.88;5064166;28;20569;-72
2023/05/10 09:27:36;;;;;;;14.82;8.35;;;;;;;12.04;100.00;93352.81;5066968;28;20041;-72
2023/05/10 09:30:03;;;;;;;15.65;8.18;;;;;;;12.15;100.00;93352.09;5067074;28;20044;-72
2023/05/10 09:32:40;;;;;;;13.65;7.97;;;;;;;12.26;100.00;93355.72;5066915;28;20052;-72
2023/05/10 09:35:10;;;;;;;10.57;7.78;;;;;;;12.31;100.00;93346.56;5066605;28;20049;-72
2023/05/10 09:37:37;;;;;;;11.45;8.18;;;;;;;12.35;100.00;93347.72;5066398;28;20040;-72
2023/05/10 09:40:08;;;;;;;11.70;7.40;;;;;;;12.31;100.00;93347.31;5066880;28;20059;-72
2023/05/10 09:42:36;;;;;;;10.07;7.47;;;;;;;12.05;100.00;93338.13;5065990;28;20404;-72
2023/05/10 09:45:04;;;;;;;11.60;6.90;;;;;;;11.58;100.00;93347.09;5066701;28;20041;-72
2023/05/10 09:47:33;;;;;;;9.60;7.13;;;;;;;11.54;100.00;93343.34;5066995;28;20424;-72
2023/05/10 09:50:03;;;;;;;13.02;8.32;;;;;;;11.30;100.00;93338.78;5067365;28;20055;-72
2023/05/10 09:52:30;;;;;;;10.55;8.05;;;;;;;11.19;100.00;93331.75;5066974;28;20052;-72
2023/05/10 09:54:57;;;;;;;12.32;9.00;;;;;;;11.23;100.00;93322.63;5055568;28;20444;-71
2023/05/10 09:57:25;;;;;;;12.63;9.52;;;;;;;11.35;100.00;93322.75;5051655;28;20044;-71
2023/05/10 09:59:54;;;;;;;11.88;9.20;;;;;;;10.96;100.00;93315.94;5051893;28;21279;-71
2023/05/10 10:02:21;;;;;;;11.88;9.38;;;;;;;10.93;100.00;93321.47;5067327;28;20443;-71
2023/05/10 10:04:50;;;;;;;10.15;8.07;;;;;;;11.05;100.00;93316.44;5067220;28;20049;-71
2023/05/10 10:07:26;;;;;;;13.98;10.15;;;;;;;11.34;100.00;93306.53;5058387;28;20091;-71
2023/05/10 10:09:54;;;;;;;33.47;22.15;;;;;;;11.08;100.00;93317.81;5065713;28;20394;-71
2023/05/10 10:12:21;;;;;;;10.93;8.55;;;;;;;10.99;100.00;93314.72;5066842;28;20048;-71
2023/05/10 10:14:50;;;;;;;16.25;9.52;;;;;;;11.41;100.00;93310.81;5066638;28;20045;-71
2023/05/10 10:17:18;;;;;;;11.70;9.38;;;;;;;11.59;100.00;93312.63;5066271;28;20041;-71
2023/05/10 10:19:46;;;;;;;12.23;9.02;;;;;;;11.68;100.00;93313.94;5064065;28;20049;-71
2023/05/10 10:22:13;;;;;;;13.90;10.40;;;;;;;11.78;100.00;93321.16;5062152;28;20045;-71
2023/05/10 10:24:40;;;;;;;12.23;8.90;;;;;;;11.76;100.00;93325.75;5062229;28;20056;-71
2023/05/10 10:27:21;;;;;;;21.05;13.45;;;;;;;11.78;100.00;93323.72;5046417;28;20076;-71
2023/05/10 10:30:02;;;;;;;17.73;11.63;;;;;;;11.58;100.00;93309.25;5061842;28;20148;-71
2023/05/10 10:32:47;;;;;;;12.27;9.40;;;;;;;11.44;100.00;93315.53;5057801;28;20061;-71
2023/05/10 10:35:14;;;;;;;13.32;9.57;;;;;;;11.58;100.00;93313.63;5066471;28;20048;-71
2023/05/10 10:37:48;;;;;;;24.52;12.85;;;;;;;11.76;100.00;93320.59;5069814;28;20086;-71
2023/05/10 10:40:25;;;;;;;16.27;9.70;;;;;;;11.91;100.00;93312.50;5070192;28;20044;-71
2023/05/10 10:42:53;;;;;;;17.05;10.07;;;;;;;11.96;100.00;93314.44;5069708;28;20126;-71
2023/05/10 10:45:21;;;;;;;13.02;9.48;;;;;;;12.22;100.00;93318.50;5070342;28;20051;-71
2023/05/10 10:47:49;;;;;;;14.50;9.38;;;;;;;12.37;100.00;93323.28;5069894;28;20059;-71
2023/05/10 10:50:16;;;;;;;13.07;8.52;;;;;;;12.31;100.00;93329.28;5070282;28;20048;-71
2023/05/10 10:52:44;;;;;;;11.13;8.40;;;;;;;12.25;100.00;93323.25;5069553;28;20607;-71
2023/05/10 10:55:12;;;;;;;15.00;9.35;;;;;;;12.40;100.00;93322.06;5069882;28;20044;-71
2023/05/10 10:57:48;;;;;;;12.75;10.07;;;;;;;12.38;100.00;93324.06;5069505;28;20044;-71
2023/05/10 11:00:29;;;;;;;15.27;9.52;;;;;;;11.62;100.00;93314.78;5070221;28;20052;-71
2023/05/10 11:02:59;;;;;;;15.35;11.10;;;;;;;11.31;100.00;93309.53;5070162;28;20507;-71
2023/05/10 11:05:35;;;;;;;15.38;10.60;;;;;;;11.20;100.00;93310.22;5069392;28;20049;-71
2023/05/10 11:08:09;;;;;;;15.70;11.25;;;;;;;11.41;100.00;93306.47;5069752;28;20142;-71
2023/05/10 11:10:36;;;;;;;16.88;10.32;;;;;;;11.59;100.00;93303.13;5069028;28;20489;-71
2023/05/10 11:13:05;;;;;;;18.50;10.77;;;;;;;11.74;100.00;93307.13;5069901;28;20496;-71
2023/05/10 11:15:33;;;;;;;20.50;11.13;;;;;;;11.82;100.00;93319.72;5064057;28;20056;-71
2023/05/10 11:18:18;;;;;;;21.55;10.93;;;;;;;11.86;100.00;93327.81;5062473;28;20098;-71
2023/05/10 11:20:46;;;;;;;18.33;11.93;;;;;;;11.92;100.00;93323.56;5069510;28;20175;-71
2023/05/10 11:23:17;;;;;;;15.88;9.27;;;;;;;11.85;100.00;93319.28;5069397;28;20527;-71
2023/05/10 11:25:45;;;;;;;16.27;10.88;;;;;;;11.57;100.00;93322.38;5067965;28;20101;-71
2023/05/10 11:28:13;;;;;;;18.95;10.43;;;;;;;11.36;100.00;93314.03;5069464;28;20048;-71
2023/05/10 11:30:40;;;;;;;18.95;12.13;;;;;;;11.52;100.00;93322.97;5068975;28;20055;-71
2023/05/10 11:33:09;;;;;;;18.42;11.32;;;;;;;11.64;100.00;93328.22;5069234;28;20052;-71